Forside
METAR-TAF:

METAR-TAF

Lufthavne :

Marquette, Michigan, USA

Breddekreds: 46-21-13N, længdekreds: 087-23-45W, højde: 372 m

Aktuelle vejr

Denne rapport blev lavet for 21 minutter siden, kl. 00:47 UTC
Vind 5 kt fra vestsydvest
Temperatur -15°C
Fugtighed 71%
Tryk 1018 hPa
Sigt: 16.1 km
skyfri

METAR: KSAW 110047Z 25005KT 10SM SKC M15/M19 A3005

Tid: 20:08 (01:08 UTC)

Vejrudsigter

Denne rapport blev lavet for 1 time og 28 minutter siden, kl. 23:40 UTC
Foreløbig gælder fra 11 på 00 UTC til 11 på 24 UTC
Vind 6 kt fra vestsydvest
Sigt: 10 km
Spredte skyer i en højde af 2500 ft
Fra 11 på 1200 UTC
Vind 9 kt fra vest
Sigt: 10 km
Nogle få skyer i en højde af 3000 ft
Fra 11 på 1400 UTC
Vind 12 kt fra vestnordvest
Sigt: 10 km
Spredte skyer i en højde af 3000 ft
Fra 11 på 2300 UTC
Vind 8 kt fra vestsydvest
Sigt: 10 km
Nogle få skyer i en højde af 12000 ft

TAF: KSAW 102340Z 1100/1124 25006KT P6SM SCT025 FM111200 27009KT P6SM FEW030 FM111400 29012KT P6SM SCT030 FM112300 25008KT P6SM FEW120

Vejrobservationer og prognoser fra mere end 4000 lufthavne (METAR og TAF).

De gule og røde prikker repræsenterer de meteorologiske stationer.

Flyt musen over at se navnet på stationen.

Så klik over at se vejr observationer og prognoser.

At skifte det kort: Klik på de grønne knapper med et sort kors for at zoome ind; på den grønne knap med en bindestreg for at zoome ud; eller på de grønne pile for tilstødende kort.


METAR-TAF: